createdAt,value
2018-11-26T00:04:07.490Z,29.27
2018-11-26T00:09:12.651Z,27.57
2018-11-26T00:14:17.242Z,25.67
2018-11-26T00:19:22.030Z,27.40
2018-11-26T00:24:26.574Z,27.23
2018-11-26T00:29:36.070Z,26.90
2018-11-26T00:34:40.576Z,27.83
2018-11-26T00:39:58.396Z,26.80
2018-11-26T00:45:03.309Z,27.60
2018-11-26T00:50:08.934Z,28.43
2018-11-26T00:55:13.372Z,27.80
2018-11-26T01:00:18.883Z,29.47
2018-11-26T01:05:31.946Z,29.43
2018-11-26T01:10:36.808Z,28.10
2018-11-26T01:15:41.259Z,31.00
2018-11-26T01:20:46.355Z,27.83
2018-11-26T01:25:50.845Z,29.53
2018-11-26T01:30:55.181Z,27.87
2018-11-26T01:35:59.898Z,28.27
2018-11-26T01:41:04.525Z,29.60
2018-11-26T01:46:08.718Z,28.60
2018-11-26T01:51:12.921Z,30.23
2018-11-26T01:56:17.698Z,28.43
2018-11-26T02:01:21.903Z,27.93
2018-11-26T02:06:26.233Z,28.27
2018-11-26T02:11:30.590Z,27.80
2018-11-26T02:16:35.738Z,27.93
2018-11-26T02:21:40.367Z,26.90
2018-11-26T02:26:45.492Z,27.27
2018-11-26T02:31:49.836Z,28.77
2018-11-26T02:36:54.634Z,28.03
2018-11-26T02:41:59.042Z,29.83
2018-11-26T02:47:03.676Z,30.57
2018-11-26T02:52:07.943Z,29.87
2018-11-26T02:57:12.243Z,28.73
2018-11-26T03:02:16.812Z,29.93
2018-11-26T03:07:34.565Z,30.27
2018-11-26T03:12:39.190Z,29.77
2018-11-26T03:17:44.232Z,30.90
2018-11-26T03:22:48.649Z,29.63
2018-11-26T03:27:53.928Z,29.80
2018-11-26T03:32:58.265Z,27.23
2018-11-26T03:38:10.464Z,27.43
2018-11-26T03:43:14.626Z,28.07
2018-11-26T03:48:18.950Z,28.07
2018-11-26T03:53:23.169Z,28.67
2018-11-26T03:58:27.769Z,28.50
2018-11-26T04:03:32.190Z,29.33
2018-11-26T04:08:37.265Z,29.67
2018-11-26T04:13:42.782Z,29.00
2018-11-26T04:18:47.696Z,29.10
2018-11-26T04:23:52.772Z,29.03
2018-11-26T04:28:57.118Z,29.53
2018-11-26T04:34:01.976Z,30.13
2018-11-26T04:39:08.311Z,30.73
2018-11-26T04:44:12.706Z,30.90
2018-11-26T04:49:17.110Z,30.43
2018-11-26T04:54:21.755Z,30.37
2018-11-26T04:59:26.127Z,29.23
2018-11-26T05:04:30.466Z,29.33
2018-11-26T05:09:35.388Z,30.00
2018-11-26T05:14:39.950Z,30.40
2018-11-26T05:19:44.418Z,31.30
2018-11-26T05:24:49.404Z,30.80
2018-11-26T05:29:53.914Z,30.83
2018-11-26T05:34:58.248Z,32.10
2018-11-26T05:40:03.354Z,30.97
2018-11-26T05:45:11.063Z,30.27
2018-11-26T05:50:16.961Z,31.97
2018-11-26T05:55:21.512Z,31.23
2018-11-26T06:00:31.343Z,29.93
2018-11-26T06:05:36.975Z,27.93
2018-11-26T06:10:42.058Z,31.00
2018-11-26T06:15:46.779Z,31.73
2018-11-26T06:20:52.171Z,30.97
2018-11-26T06:25:58.475Z,32.80
2018-11-26T06:31:02.922Z,32.00
2018-11-26T06:36:07.801Z,31.97
2018-11-26T06:41:12.209Z,32.53
2018-11-26T06:46:16.758Z,32.57
2018-11-26T06:51:23.711Z,34.00
2018-11-26T06:56:28.425Z,31.60
2018-11-26T07:01:33.399Z,32.73
2018-11-26T07:06:37.785Z,33.23
2018-11-26T07:11:42.060Z,34.67
2018-11-26T07:16:46.531Z,32.87
2018-11-26T07:21:51.132Z,32.50
2018-11-26T07:26:55.465Z,33.40
2018-11-26T07:32:00.036Z,32.50
2018-11-26T07:37:04.434Z,32.93
2018-11-26T07:42:09.568Z,32.47
2018-11-26T07:47:32.545Z,33.00
2018-11-26T07:52:38.465Z,32.57
2018-11-26T07:57:43.215Z,33.40
2018-11-26T08:02:48.696Z,32.87
2018-11-26T08:07:58.260Z,34.90
2018-11-26T08:13:02.527Z,32.60
2018-11-26T08:18:06.936Z,36.77
2018-11-26T08:23:11.237Z,35.27
2018-11-26T08:28:15.495Z,38.13
2018-11-26T08:33:20.409Z,35.90
2018-11-26T08:38:28.815Z,36.77
2018-11-26T08:43:35.679Z,35.33
2018-11-26T08:48:45.499Z,34.90
2018-11-26T08:53:50.245Z,33.90
2018-11-26T08:58:54.581Z,33.70
2018-11-26T09:04:03.525Z,33.77
2018-11-26T09:09:10.441Z,34.63
2018-11-26T09:14:14.801Z,33.10
2018-11-26T09:19:20.129Z,34.03
2018-11-26T09:24:24.549Z,34.50
2018-11-26T09:29:29.343Z,33.33
2018-11-26T09:34:33.841Z,32.33
2018-11-26T09:39:38.375Z,34.17
2018-11-26T09:44:43.952Z,32.33
2018-11-26T09:49:48.344Z,30.97
2018-11-26T09:54:53.085Z,30.53
2018-11-26T09:59:57.460Z,29.13
2018-11-26T10:05:02.172Z,28.57
2018-11-26T10:10:08.602Z,28.87
2018-11-26T10:15:20.605Z,28.10
2018-11-26T10:20:25.143Z,27.87
2018-11-26T10:25:29.783Z,26.57
2018-11-26T10:30:34.236Z,26.47
2018-11-26T10:35:38.977Z,26.67
2018-11-26T10:40:45.059Z,25.63
2018-11-26T10:45:49.409Z,24.27
2018-11-26T10:50:54.155Z,24.83
2018-11-26T10:55:59.039Z,23.20
2018-11-26T11:01:07.473Z,24.90
2018-11-26T11:06:11.911Z,24.17
2018-11-26T11:11:23.217Z,24.23
2018-11-26T11:16:21.198Z,23.97
2018-11-26T11:21:25.635Z,23.23
2018-11-26T11:26:30.185Z,21.60
2018-11-26T11:31:35.038Z,24.20
2018-11-26T11:36:39.593Z,22.87
2018-11-26T11:41:44.960Z,23.40
2018-11-26T11:46:49.468Z,24.77
2018-11-26T11:51:53.978Z,25.57
2018-11-26T11:57:03.353Z,25.20
2018-11-26T12:02:09.289Z,27.27
2018-11-26T12:07:13.896Z,25.47
2018-11-26T12:12:18.120Z,24.97
2018-11-26T12:17:23.292Z,24.20
2018-11-26T12:22:27.837Z,23.97
2018-11-26T12:27:32.274Z,23.80
2018-11-26T12:32:36.587Z,23.40
2018-11-26T12:37:41.238Z,23.00
2018-11-26T12:42:45.545Z,23.43
2018-11-26T12:47:49.889Z,23.60
2018-11-26T12:52:54.631Z,24.00
2018-11-26T12:57:59.293Z,25.07
2018-11-26T13:03:06.220Z,24.97
2018-11-26T13:08:10.786Z,25.33
2018-11-26T13:13:15.236Z,27.47
2018-11-26T13:18:19.670Z,24.97
2018-11-26T13:23:24.205Z,25.93
2018-11-26T13:28:29.232Z,24.17
2018-11-26T13:33:34.274Z,26.40
2018-11-26T13:38:39.297Z,26.17
2018-11-26T13:43:44.903Z,25.60
2018-11-26T13:48:49.534Z,25.67
2018-11-26T13:53:54.696Z,24.43
2018-11-26T13:58:59.469Z,23.80
2018-11-26T14:04:04.661Z,23.90
2018-11-26T14:09:10.252Z,23.90
2018-11-26T14:14:15.639Z,24.87
2018-11-26T14:19:20.496Z,25.93
2018-11-26T14:24:24.776Z,25.00
2018-11-26T14:29:29.523Z,25.50
2018-11-26T14:34:33.833Z,24.10
2018-11-26T14:39:38.258Z,24.20
2018-11-26T14:44:42.997Z,23.67
2018-11-26T14:49:48.189Z,24.33
2018-11-26T14:55:02.463Z,27.00
2018-11-26T15:05:52.892Z,23.43
2018-11-26T15:11:11.937Z,21.97
2018-11-26T15:16:21.431Z,23.67
2018-11-26T15:21:27.526Z,23.23
2018-11-26T15:26:32.020Z,25.87
2018-11-26T15:31:36.788Z,24.97
2018-11-26T15:36:43.985Z,24.07
2018-11-26T15:41:49.029Z,25.03
2018-11-26T15:46:53.665Z,21.97
2018-11-26T15:51:58.198Z,22.20
2018-11-26T15:57:02.797Z,22.90
2018-11-26T16:02:07.956Z,23.93
2018-11-26T16:07:18.234Z,22.77
2018-11-26T16:12:23.286Z,24.00
2018-11-26T16:17:27.860Z,22.50
2018-11-26T16:22:32.213Z,21.73
2018-11-26T16:27:36.542Z,24.27
2018-11-26T16:32:41.231Z,23.37
2018-11-26T16:37:45.812Z,22.43
2018-11-26T16:42:50.202Z,22.20
2018-11-26T16:47:59.900Z,24.57
2018-11-26T16:53:04.600Z,23.43
2018-11-26T16:58:09.240Z,23.60
2018-11-26T17:03:14.460Z,22.83
2018-11-26T17:08:19.082Z,22.80
2018-11-26T17:13:24.081Z,22.13
2018-11-26T17:18:33.832Z,21.90
2018-11-26T17:23:38.944Z,21.50
2018-11-26T17:28:43.400Z,21.93
2018-11-26T17:33:48.056Z,22.37
2018-11-26T17:38:52.685Z,21.63
2018-11-26T17:43:57.400Z,22.77
2018-11-26T17:49:02.522Z,22.13
2018-11-26T17:54:06.954Z,20.23
2018-11-26T17:59:11.881Z,20.97
2018-11-26T18:04:16.607Z,20.77
2018-11-26T18:09:22.894Z,21.77
2018-11-26T18:14:26.205Z,21.47
2018-11-26T18:19:30.764Z,20.87
2018-11-26T18:24:35.849Z,19.97
2018-11-26T18:29:58.822Z,21.03
2018-11-26T18:35:04.732Z,20.00
2018-11-26T18:40:14.035Z,20.37
2018-11-26T18:45:19.054Z,20.77
2018-11-26T18:50:23.424Z,21.43
2018-11-26T18:55:27.962Z,21.33
2018-11-26T19:00:34.840Z,22.40
2018-11-26T19:05:39.238Z,21.40
2018-11-26T19:10:43.804Z,20.43
2018-11-26T19:15:50.107Z,22.33
2018-11-26T19:20:55.673Z,19.47
2018-11-26T19:26:04.983Z,22.67
2018-11-26T19:31:09.845Z,21.30
2018-11-26T19:36:28.012Z,20.40
2018-11-26T19:41:32.938Z,22.20
2018-11-26T19:46:37.461Z,20.73
2018-11-26T19:51:42.378Z,21.33
2018-11-26T19:56:47.157Z,19.60
2018-11-26T20:01:51.674Z,20.83
2018-11-26T20:06:56.151Z,22.40
2018-11-26T20:12:00.644Z,22.23
2018-11-26T20:17:11.155Z,20.67
2018-11-26T20:22:16.438Z,21.13
2018-11-26T20:27:21.848Z,20.27
2018-11-26T20:32:30.260Z,22.10
2018-11-26T20:42:53.819Z,21.53
2018-11-26T20:47:58.723Z,23.57
2018-11-26T20:53:03.569Z,22.20
2018-11-26T20:58:21.495Z,21.73
2018-11-26T21:03:30.388Z,21.80
2018-11-26T21:08:36.181Z,21.03
2018-11-26T21:13:40.938Z,21.93
2018-11-26T21:18:45.965Z,21.50
2018-11-26T21:23:51.845Z,21.27
2018-11-26T21:28:56.528Z,20.80
2018-11-26T21:34:01.383Z,21.23
2018-11-26T21:39:11.548Z,21.50
2018-11-26T21:44:15.884Z,20.83
2018-11-26T21:49:21.761Z,20.30
2018-11-26T21:54:26.366Z,20.53
2018-11-26T21:59:31.299Z,21.10
2018-11-26T22:04:36.929Z,20.70
2018-11-26T22:09:41.829Z,21.83
2018-11-26T22:14:46.431Z,21.00
2018-11-26T22:19:51.228Z,21.37
2018-11-26T22:24:55.779Z,20.30
2018-11-26T22:30:13.422Z,20.73
2018-11-26T22:35:18.195Z,21.37
2018-11-26T22:40:27.812Z,19.97
2018-11-26T22:45:33.239Z,20.23
2018-11-26T22:50:40.120Z,21.07
2018-11-26T22:55:47.487Z,20.73
2018-11-26T23:00:54.644Z,20.83
2018-11-26T23:06:00.821Z,21.10
2018-11-26T23:11:05.725Z,19.40
2018-11-26T23:16:10.363Z,20.20
2018-11-26T23:21:15.377Z,19.77
2018-11-26T23:26:20.097Z,20.43
2018-11-26T23:31:24.551Z,19.33
2018-11-26T23:36:34.056Z,19.23
2018-11-26T23:41:38.462Z,20.97
2018-11-26T23:46:43.138Z,20.43
2018-11-26T23:51:48.055Z,18.97
2018-11-26T23:57:02.133Z,18.57
